Time;durP1;ratioP1;P1;durP2;ratioP2;P2;SDS_P1;SDS_P2;PMS_P1;PMS_P2;Temp;Humidity;BMP_temperature;BMP_pressure;BME280_temperature;BME280_humidity;BME280_pressure;Samples;Min_cycle;Max_cycle;Signal;HPM_P1;HPM_P2
2023/07/22 00:01:14;;;;;;;9.40;7.60;;;;;;;;;;5080072;28;20202;-85
2023/07/22 00:03:40;;;;;;;8.57;7.67;;;;;;;;;;5076639;28;20226;-85
2023/07/22 00:06:10;;;;;;;10.13;8.23;;;;;;;;;;5076683;28;20178;-85
2023/07/22 00:08:36;;;;;;;8.87;7.80;;;;;;;;;;5076646;28;20201;-84
2023/07/22 00:11:03;;;;;;;9.40;8.03;;;;;;;;;;5081467;28;20186;-85
2023/07/22 00:13:29;;;;;;;8.80;7.53;;;;;;;;;;5076684;28;20239;-80
2023/07/22 00:15:55;;;;;;;9.77;7.97;;;;;;;;;;5077010;28;20194;-80
2023/07/22 00:18:22;;;;;;;8.67;7.77;;;;;;;;;;5076777;28;20273;-80
2023/07/22 00:20:48;;;;;;;10.30;8.20;;;;;;;;;;5081281;28;20181;-80
2023/07/22 00:23:19;;;;;;;9.20;7.97;;;;;;;;;;5083234;28;20213;-80
2023/07/22 00:25:46;;;;;;;9.60;8.07;;;;;;;;;;5108729;28;20186;-80
2023/07/22 00:28:12;;;;;;;9.77;8.60;;;;;;;;;;5068268;28;20215;-80
2023/07/22 00:30:38;;;;;;;9.73;8.70;;;;;;;;;;5077495;28;20175;-80
2023/07/22 00:33:05;;;;;;;11.47;9.17;;;;;;;;;;5084458;28;20205;-80
2023/07/22 00:35:31;;;;;;;12.37;9.30;;;;;;;;;;5076092;28;20194;-80
2023/07/22 00:37:58;;;;;;;10.03;8.43;;;;;;;;;;5062462;28;20194;-80
2023/07/22 00:40:24;;;;;;;10.97;9.17;;;;;;;;;;5072304;28;20217;-79
2023/07/22 00:42:50;;;;;;;10.23;8.63;;;;;;;;;;5092043;28;20212;-79
2023/07/22 00:45:16;;;;;;;11.93;9.20;;;;;;;;;;5095243;28;20170;-79
2023/07/22 00:47:45;;;;;;;10.07;8.87;;;;;;;;;;5076279;28;20190;-79
2023/07/22 00:50:11;;;;;;;11.20;9.40;;;;;;;;;;5094306;28;20219;-79
2023/07/22 00:52:38;;;;;;;11.60;9.87;;;;;;;;;;5094550;28;20185;-79
2023/07/22 00:55:05;;;;;;;11.97;9.83;;;;;;;;;;5087563;28;20216;-79
2023/07/22 00:57:31;;;;;;;12.17;10.33;;;;;;;;;;5093633;28;20194;-79
2023/07/22 00:59:57;;;;;;;13.57;10.27;;;;;;;;;;5094409;28;20190;-79
2023/07/22 01:02:24;;;;;;;12.40;9.90;;;;;;;;;;5091638;28;20209;-80
2023/07/22 01:04:51;;;;;;;11.97;10.33;;;;;;;;;;5091526;28;20222;-79
2023/07/22 01:07:18;;;;;;;12.33;9.87;;;;;;;;;;5090474;28;20174;-81
2023/07/22 01:09:44;;;;;;;11.40;10.00;;;;;;;;;;5092626;28;20185;-81
2023/07/22 01:12:11;;;;;;;11.67;9.80;;;;;;;;;;5094325;28;20193;-81
2023/07/22 01:14:39;;;;;;;12.30;10.40;;;;;;;;;;5092720;28;20182;-80
2023/07/22 01:17:06;;;;;;;13.00;10.57;;;;;;;;;;5091591;28;20189;-80
2023/07/22 01:19:34;;;;;;;11.37;9.93;;;;;;;;;;5095590;28;20235;-80
2023/07/22 01:22:01;;;;;;;15.60;11.63;;;;;;;;;;5075281;28;20236;-80
2023/07/22 01:24:30;;;;;;;13.67;12.03;;;;;;;;;;5092186;28;20207;-80
2023/07/22 01:26:56;;;;;;;15.53;12.83;;;;;;;;;;5086062;28;20186;-80
2023/07/22 01:29:23;;;;;;;16.70;12.80;;;;;;;;;;5078246;28;20280;-80
2023/07/22 01:31:51;;;;;;;17.13;12.57;;;;;;;;;;5078261;28;20214;-80
2023/07/22 01:34:20;;;;;;;15.50;12.30;;;;;;;;;;5080988;28;20182;-82
2023/07/22 01:36:50;;;;;;;15.57;12.67;;;;;;;;;;5088289;28;20182;-82
2023/07/22 01:39:16;;;;;;;13.77;11.53;;;;;;;;;;5091215;28;20252;-81
2023/07/22 01:41:42;;;;;;;15.60;9.60;;;;;;;;;;5094018;28;20216;-81
2023/07/22 01:44:09;;;;;;;10.00;8.87;;;;;;;;;;5091999;28;20185;-80
2023/07/22 01:46:35;;;;;;;11.07;9.37;;;;;;;;;;5093804;28;20220;-80
2023/07/22 01:49:02;;;;;;;10.80;9.10;;;;;;;;;;5094409;28;20206;-79
2023/07/22 01:51:28;;;;;;;10.60;8.80;;;;;;;;;;5091146;28;20174;-79
2023/07/22 01:53:56;;;;;;;10.33;8.50;;;;;;;;;;5090987;28;20182;-79
2023/07/22 01:56:22;;;;;;;10.77;8.50;;;;;;;;;;5091517;28;20182;-79
2023/07/22 01:58:48;;;;;;;9.20;8.30;;;;;;;;;;5092133;28;20193;-80
2023/07/22 02:01:16;;;;;;;12.60;9.33;;;;;;;;;;5085598;28;20189;-80
2023/07/22 02:03:42;;;;;;;10.07;8.60;;;;;;;;;;5075209;28;20210;-80
2023/07/22 02:06:08;;;;;;;12.40;9.17;;;;;;;;;;5079391;28;20178;-80
2023/07/22 02:08:36;;;;;;;9.80;8.80;;;;;;;;;;5079018;28;20183;-80
2023/07/22 02:11:06;;;;;;;10.17;9.13;;;;;;;;;;5066157;28;20247;-80
2023/07/22 02:13:33;;;;;;;11.00;8.80;;;;;;;;;;5079116;28;20217;-80
2023/07/22 02:15:59;;;;;;;10.17;9.10;;;;;;;;;;5078886;28;20179;-81
2023/07/22 02:18:25;;;;;;;12.80;9.37;;;;;;;;;;5077699;28;20214;-81
2023/07/22 02:20:52;;;;;;;12.73;9.33;;;;;;;;;;5079211;28;20178;-81
2023/07/22 02:23:19;;;;;;;12.07;9.87;;;;;;;;;;5079824;28;20210;-81
2023/07/22 02:25:48;;;;;;;13.37;10.37;;;;;;;;;;5089372;28;20254;-81
2023/07/22 02:28:15;;;;;;;12.10;10.20;;;;;;;;;;5096934;28;20334;-81
2023/07/22 02:30:41;;;;;;;13.17;10.17;;;;;;;;;;5079792;28;20185;-81
2023/07/22 02:33:09;;;;;;;15.70;10.00;;;;;;;;;;5079017;28;20250;-81
2023/07/22 02:35:35;;;;;;;10.93;8.90;;;;;;;;;;5081273;28;20201;-81
2023/07/22 02:38:02;;;;;;;13.43;10.10;;;;;;;;;;5097198;28;20272;-81
2023/07/22 02:40:28;;;;;;;12.80;10.30;;;;;;;;;;5081141;28;20182;-81
2023/07/22 02:42:54;;;;;;;12.33;10.00;;;;;;;;;;5081274;28;20305;-80
2023/07/22 02:45:20;;;;;;;13.67;9.93;;;;;;;;;;5069365;28;20186;-81
2023/07/22 02:47:46;;;;;;;11.50;10.13;;;;;;;;;;5078335;28;20182;-80
2023/07/22 02:50:13;;;;;;;11.60;10.30;;;;;;;;;;5076304;28;20185;-81
2023/07/22 02:52:41;;;;;;;12.43;10.77;;;;;;;;;;5084441;28;20182;-81
2023/07/22 02:55:11;;;;;;;11.80;10.50;;;;;;;;;;5062962;28;20186;-81
2023/07/22 02:57:38;;;;;;;12.13;10.23;;;;;;;;;;5091203;28;20183;-80
2023/07/22 03:00:08;;;;;;;13.87;10.70;;;;;;;;;;5082014;28;20187;-80
2023/07/22 03:02:35;;;;;;;15.13;10.13;;;;;;;;;;5090246;28;20258;-81
2023/07/22 03:05:02;;;;;;;12.53;10.27;;;;;;;;;;5078478;28;20313;-81
2023/07/22 03:07:31;;;;;;;13.67;10.33;;;;;;;;;;5072883;28;20202;-81
2023/07/22 03:10:00;;;;;;;14.23;10.97;;;;;;;;;;5074951;28;20187;-81
2023/07/22 03:12:26;;;;;;;15.30;12.13;;;;;;;;;;5075080;28;20180;-81
2023/07/22 03:14:58;;;;;;;17.00;11.87;;;;;;;;;;5078066;28;20241;-81
2023/07/22 03:17:24;;;;;;;16.50;11.07;;;;;;;;;;5077078;28;20191;-81
2023/07/22 03:19:52;;;;;;;13.30;11.17;;;;;;;;;;5094789;28;20235;-81
2023/07/22 03:22:18;;;;;;;13.73;11.33;;;;;;;;;;5081929;28;20211;-81
2023/07/22 03:24:45;;;;;;;15.27;11.43;;;;;;;;;;5071973;28;20269;-81
2023/07/22 03:27:11;;;;;;;13.90;11.10;;;;;;;;;;5073311;28;20194;-81
2023/07/22 03:29:38;;;;;;;14.03;11.23;;;;;;;;;;5078091;28;20177;-81
2023/07/22 03:32:04;;;;;;;14.63;11.93;;;;;;;;;;5074907;28;20186;-81
2023/07/22 03:34:33;;;;;;;13.50;11.67;;;;;;;;;;5076525;28;20191;-81
2023/07/22 03:36:59;;;;;;;15.93;12.30;;;;;;;;;;5088672;28;20262;-81
2023/07/22 03:39:25;;;;;;;15.23;11.90;;;;;;;;;;5076721;28;20187;-80
2023/07/22 03:41:54;;;;;;;14.03;11.63;;;;;;;;;;5086762;28;20211;-80
2023/07/22 03:44:23;;;;;;;13.33;11.23;;;;;;;;;;5069786;28;20234;-81
2023/07/22 03:46:49;;;;;;;14.77;12.20;;;;;;;;;;5073751;28;20214;-81
2023/07/22 03:49:15;;;;;;;14.23;11.33;;;;;;;;;;5075236;28;20186;-81
2023/07/22 03:51:41;;;;;;;14.07;11.37;;;;;;;;;;5089636;28;20183;-81
2023/07/22 03:54:07;;;;;;;14.40;11.70;;;;;;;;;;5071504;28;20187;-81
2023/07/22 03:56:33;;;;;;;14.93;12.03;;;;;;;;;;5094159;28;20175;-81
2023/07/22 03:58:59;;;;;;;15.77;12.60;;;;;;;;;;5076098;28;20183;-81
2023/07/22 04:01:25;;;;;;;15.33;12.33;;;;;;;;;;5074150;28;20202;-81
2023/07/22 04:03:52;;;;;;;13.80;11.57;;;;;;;;;;5080171;28;20278;-81
2023/07/22 04:06:18;;;;;;;15.20;11.60;;;;;;;;;;5075753;28;20188;-80
2023/07/22 04:08:45;;;;;;;14.17;12.03;;;;;;;;;;5076821;28;20182;-81
2023/07/22 04:11:11;;;;;;;15.10;11.47;;;;;;;;;;5076671;28;20196;-81
2023/07/22 04:13:37;;;;;;;16.23;12.00;;;;;;;;;;5086812;28;20185;-81
2023/07/22 04:16:03;;;;;;;14.53;12.00;;;;;;;;;;5076783;28;20167;-81
2023/07/22 04:18:34;;;;;;;15.30;12.00;;;;;;;;;;5076351;28;20182;-81
2023/07/22 04:21:00;;;;;;;15.43;12.30;;;;;;;;;;5093773;28;20195;-81
2023/07/22 04:23:27;;;;;;;15.07;12.03;;;;;;;;;;5075722;28;20207;-81
2023/07/22 04:25:56;;;;;;;15.80;12.27;;;;;;;;;;5077005;28;20209;-81
2023/07/22 04:28:22;;;;;;;16.23;12.57;;;;;;;;;;5076877;28;20293;-81
2023/07/22 04:30:55;;;;;;;15.60;12.43;;;;;;;;;;5079025;28;20178;-81
2023/07/22 04:33:21;;;;;;;19.50;13.00;;;;;;;;;;5085939;28;20185;-80
2023/07/22 04:35:50;;;;;;;16.70;13.27;;;;;;;;;;5096648;28;20276;-85
2023/07/22 04:38:19;;;;;;;17.57;14.13;;;;;;;;;;5075561;28;20191;-85
2023/07/22 04:40:45;;;;;;;20.50;15.67;;;;;;;;;;5079756;28;20186;-85
2023/07/22 04:43:14;;;;;;;23.20;17.30;;;;;;;;;;5083181;28;20214;-85
2023/07/22 04:45:44;;;;;;;26.37;19.50;;;;;;;;;;5087582;28;20189;-85
2023/07/22 04:48:14;;;;;;;34.07;22.43;;;;;;;;;;5076260;28;20186;-86
2023/07/22 04:50:40;;;;;;;30.50;21.70;;;;;;;;;;5096069;28;20182;-86
2023/07/22 04:53:07;;;;;;;31.30;21.53;;;;;;;;;;5086866;28;20236;-86
2023/07/22 04:55:33;;;;;;;29.63;21.73;;;;;;;;;;5071164;28;20261;-86
2023/07/22 04:58:01;;;;;;;30.27;21.53;;;;;;;;;;5096929;28;20194;-86
2023/07/22 05:00:28;;;;;;;28.13;20.07;;;;;;;;;;5074100;28;20195;-86
2023/07/22 05:02:57;;;;;;;30.40;21.20;;;;;;;;;;5094895;28;20217;-86
2023/07/22 05:05:25;;;;;;;30.70;21.50;;;;;;;;;;5076347;28;20271;-86
2023/07/22 05:07:52;;;;;;;31.13;21.33;;;;;;;;;;5075568;28;20179;-87
2023/07/22 05:10:19;;;;;;;31.27;21.20;;;;;;;;;;5089437;28;20204;-86
2023/07/22 05:12:45;;;;;;;29.40;21.73;;;;;;;;;;5088874;28;20185;-86
2023/07/22 05:15:11;;;;;;;34.93;21.93;;;;;;;;;;5093274;28;20178;-88
2023/07/22 05:17:45;;;;;;;30.87;21.53;;;;;;;;;;5092212;28;20200;-86
2023/07/22 05:20:28;;;;;;;31.37;21.07;;;;;;;;;;5091184;28;20231;-86
2023/07/22 05:22:57;;;;;;;33.33;21.53;;;;;;;;;;5091507;28;20205;-86
2023/07/22 05:25:26;;;;;;;32.13;20.47;;;;;;;;;;5072883;28;20186;-86
2023/07/22 05:27:52;;;;;;;30.93;21.67;;;;;;;;;;5090512;28;20205;-86
2023/07/22 05:30:18;;;;;;;31.53;21.20;;;;;;;;;;5093132;28;20262;-87
2023/07/22 05:32:44;;;;;;;33.13;22.63;;;;;;;;;;5085448;28;20197;-87
2023/07/22 05:35:10;;;;;;;31.03;23.40;;;;;;;;;;5095048;28;20190;-86
2023/07/22 05:37:36;;;;;;;32.63;22.53;;;;;;;;;;5098586;28;20227;-88
2023/07/22 05:40:02;;;;;;;35.57;23.67;;;;;;;;;;5098873;28;20181;-85
2023/07/22 05:42:29;;;;;;;35.07;23.87;;;;;;;;;;5099013;28;20242;-86
2023/07/22 05:44:58;;;;;;;31.17;22.10;;;;;;;;;;5099242;28;20182;-87
2023/07/22 05:47:31;;;;;;;30.03;23.00;;;;;;;;;;5098169;28;20202;-85
2023/07/22 05:50:03;;;;;;;33.33;23.63;;;;;;;;;;5099454;28;20264;-85
2023/07/22 05:52:29;;;;;;;37.07;24.33;;;;;;;;;;5082768;28;20186;-86
2023/07/22 05:54:58;;;;;;;33.27;23.27;;;;;;;;;;5098971;28;20251;-85
2023/07/22 05:57:26;;;;;;;32.23;22.70;;;;;;;;;;5081849;28;20243;-86
2023/07/22 05:59:53;;;;;;;32.47;23.73;;;;;;;;;;5096748;28;20205;-86
2023/07/22 06:02:21;;;;;;;32.67;23.40;;;;;;;;;;5098879;28;20197;-86
2023/07/22 06:04:50;;;;;;;30.97;22.90;;;;;;;;;;5081781;28;20226;-86
2023/07/22 06:07:16;;;;;;;35.30;23.87;;;;;;;;;;5098637;28;20194;-86
2023/07/22 06:09:45;;;;;;;30.80;23.47;;;;;;;;;;5098808;28;20182;-85
2023/07/22 06:12:13;;;;;;;30.07;23.47;;;;;;;;;;5096159;28;20207;-86
2023/07/22 06:14:45;;;;;;;33.90;22.83;;;;;;;;;;5080681;28;20183;-85
2023/07/22 06:17:11;;;;;;;32.00;23.10;;;;;;;;;;5081481;28;20190;-86
2023/07/22 06:19:37;;;;;;;32.73;23.63;;;;;;;;;;5079651;28;20187;-86
2023/07/22 06:22:03;;;;;;;30.53;22.43;;;;;;;;;;5080590;28;20248;-87
2023/07/22 06:24:29;;;;;;;31.73;22.90;;;;;;;;;;5098714;28;20178;-86
2023/07/22 06:26:55;;;;;;;31.57;23.03;;;;;;;;;;5098780;28;20178;-86
2023/07/22 06:29:27;;;;;;;32.03;23.33;;;;;;;;;;5098785;28;20256;-86
2023/07/22 06:31:55;;;;;;;31.03;22.43;;;;;;;;;;5094188;28;20214;-86
2023/07/22 06:34:22;;;;;;;30.40;22.50;;;;;;;;;;5079166;28;20273;-87
2023/07/22 06:36:50;;;;;;;30.50;22.10;;;;;;;;;;5085628;28;20182;-87
2023/07/22 06:39:16;;;;;;;32.80;22.87;;;;;;;;;;5097930;28;20273;-88
2023/07/22 06:41:42;;;;;;;31.20;21.43;;;;;;;;;;5098104;28;20296;-88
2023/07/22 06:44:11;;;;;;;29.70;21.90;;;;;;;;;;5098468;28;20249;-87
2023/07/22 06:46:37;;;;;;;28.60;21.57;;;;;;;;;;5097319;28;20248;-81
2023/07/22 06:49:03;;;;;;;31.63;22.17;;;;;;;;;;5079603;28;20236;-81
2023/07/22 06:51:29;;;;;;;31.97;22.37;;;;;;;;;;5081839;28;20162;-81
2023/07/22 06:53:56;;;;;;;30.90;22.20;;;;;;;;;;5098223;28;20226;-80
2023/07/22 06:56:22;;;;;;;29.10;22.97;;;;;;;;;;5098434;28;20178;-80
2023/07/22 06:58:48;;;;;;;29.20;21.90;;;;;;;;;;5095406;28;20178;-80
2023/07/22 07:01:14;;;;;;;29.93;22.17;;;;;;;;;;5098071;28;20178;-80
2023/07/22 07:03:40;;;;;;;30.23;22.13;;;;;;;;;;5066666;28;20201;-83
2023/07/22 07:06:08;;;;;;;27.20;20.57;;;;;;;;;;5061302;28;20246;-83
2023/07/22 07:08:34;;;;;;;27.50;19.30;;;;;;;;;;5078010;28;20178;-82
2023/07/22 07:11:01;;;;;;;30.17;21.10;;;;;;;;;;5081634;28;20182;-81
2023/07/22 07:13:27;;;;;;;26.47;19.80;;;;;;;;;;5081349;28;20175;-81
2023/07/22 07:15:53;;;;;;;29.20;21.17;;;;;;;;;;5065976;28;20186;-82
2023/07/22 07:18:19;;;;;;;27.33;18.87;;;;;;;;;;5079079;28;20210;-84
2023/07/22 07:20:45;;;;;;;23.97;18.90;;;;;;;;;;5086250;28;20186;-83
2023/07/22 07:23:12;;;;;;;24.27;19.33;;;;;;;;;;5084766;28;20213;-84
2023/07/22 07:25:38;;;;;;;28.77;20.50;;;;;;;;;;5088576;28;20171;-84
2023/07/22 07:28:05;;;;;;;25.33;18.80;;;;;;;;;;5078087;28;20332;-84
2023/07/22 07:30:32;;;;;;;29.13;18.40;;;;;;;;;;5086928;28;20277;-84
2023/07/22 07:32:58;;;;;;;23.33;18.83;;;;;;;;;;5076996;28;20298;-84
2023/07/22 07:35:24;;;;;;;22.73;17.17;;;;;;;;;;5076577;28;20174;-84
2023/07/22 07:37:50;;;;;;;24.40;18.30;;;;;;;;;;5075611;28;20186;-83
2023/07/22 07:40:16;;;;;;;22.70;18.37;;;;;;;;;;5075884;28;20214;-84
2023/07/22 07:42:44;;;;;;;26.43;18.87;;;;;;;;;;5060782;28;20259;-84
2023/07/22 07:45:10;;;;;;;24.33;18.03;;;;;;;;;;5077467;28;20210;-83
2023/07/22 07:47:58;;;;;;;;;;;;;;;;;;;;;
2023/07/22 07:50:25;;;;;;;26.03;17.50;;;;;;;;;;5099478;28;20200;-83
2023/07/22 07:52:51;;;;;;;24.47;16.30;;;;;;;;;;5089132;28;20174;-82
2023/07/22 07:55:20;;;;;;;20.83;16.27;;;;;;;;;;5079474;28;20250;-83
2023/07/22 07:57:46;;;;;;;22.27;15.73;;;;;;;;;;5071741;28;20228;-83
2023/07/22 08:00:12;;;;;;;21.83;15.23;;;;;;;;;;5080444;28;20198;-82
2023/07/22 08:02:38;;;;;;;22.17;15.30;;;;;;;;;;5075542;28;20242;-83
2023/07/22 08:05:05;;;;;;;20.30;17.02;;;;;;;;;;5070560;28;20439;-83
2023/07/22 08:07:31;;;;;;;23.17;15.03;;;;;;;;;;5075619;28;20187;-83
2023/07/22 08:09:58;;;;;;;19.97;14.53;;;;;;;;;;5076877;28;20170;-83
2023/07/22 08:12:25;;;;;;;18.30;13.90;;;;;;;;;;5060198;28;20214;-84
2023/07/22 08:14:52;;;;;;;16.33;13.33;;;;;;;;;;5077450;28;20250;-84
2023/07/22 08:17:18;;;;;;;18.10;12.43;;;;;;;;;;5076438;28;20174;-84
2023/07/22 08:19:47;;;;;;;21.67;12.27;;;;;;;;;;5061159;28;20183;-82
2023/07/22 08:22:13;;;;;;;15.27;11.63;;;;;;;;;;5076242;28;20206;-83
2023/07/22 08:24:39;;;;;;;16.13;12.03;;;;;;;;;;5091690;28;20195;-83
2023/07/22 08:27:06;;;;;;;15.27;11.50;;;;;;;;;;5068330;28;20178;-83
2023/07/22 08:29:32;;;;;;;14.20;11.10;;;;;;;;;;5076704;28;20174;-84
2023/07/22 08:31:59;;;;;;;17.73;11.03;;;;;;;;;;5096671;28;20251;-87
2023/07/22 08:34:25;;;;;;;12.67;10.60;;;;;;;;;;5075269;28;20349;-84
2023/07/22 08:36:51;;;;;;;14.23;11.90;;;;;;;;;;5061886;28;20190;-84
2023/07/22 08:39:17;;;;;;;18.10;12.57;;;;;;;;;;5060321;28;20178;-85
2023/07/22 08:41:47;;;;;;;15.50;12.83;;;;;;;;;;5060612;28;20202;-85
2023/07/22 08:44:14;;;;;;;18.27;12.83;;;;;;;;;;5084537;28;20190;-84
2023/07/22 08:46:41;;;;;;;18.33;11.67;;;;;;;;;;5097426;28;20180;-85
2023/07/22 08:49:08;;;;;;;19.53;12.60;;;;;;;;;;5080338;28;20204;-85
2023/07/22 08:51:37;;;;;;;19.67;11.90;;;;;;;;;;5076653;28;20260;-84
2023/07/22 08:54:03;;;;;;;18.70;12.00;;;;;;;;;;5060893;28;20170;-85
2023/07/22 08:56:29;;;;;;;12.70;11.37;;;;;;;;;;5071354;28;20217;-85
2023/07/22 08:58:56;;;;;;;15.07;11.90;;;;;;;;;;5059668;28;20183;-84
2023/07/22 09:01:22;;;;;;;17.03;11.40;;;;;;;;;;5075949;28;20174;-85
2023/07/22 09:03:52;;;;;;;12.57;11.07;;;;;;;;;;5076351;28;20179;-85
2023/07/22 09:06:21;;;;;;;15.83;11.33;;;;;;;;;;5076493;28;20233;-86
2023/07/22 09:08:47;;;;;;;14.47;10.47;;;;;;;;;;5076391;28;20210;-84
2023/07/22 09:11:14;;;;;;;15.70;12.73;;;;;;;;;;5059693;28;20186;-85
2023/07/22 09:13:40;;;;;;;16.57;12.20;;;;;;;;;;5076096;28;20186;-84
2023/07/22 09:16:09;;;;;;;15.83;12.90;;;;;;;;;;5075826;28;20178;-84
2023/07/22 09:18:35;;;;;;;18.37;13.07;;;;;;;;;;5075492;28;20178;-83
2023/07/22 09:21:01;;;;;;;15.13;12.57;;;;;;;;;;5075584;28;20202;-84
2023/07/22 09:23:38;;;;;;;15.43;11.23;;;;;;;;;;5075955;28;20216;-83
2023/07/22 09:26:14;;;;;;;14.27;10.50;;;;;;;;;;5075736;28;20201;-82
2023/07/22 09:28:54;;;;;;;14.47;10.10;;;;;;;;;;5075549;28;20198;-83
2023/07/22 09:31:24;;;;;;;13.07;8.80;;;;;;;;;;5075655;28;20182;-83
2023/07/22 09:33:51;;;;;;;9.97;8.37;;;;;;;;;;5075740;28;20182;-84
2023/07/22 09:36:17;;;;;;;12.70;8.57;;;;;;;;;;5075962;28;20261;-84
2023/07/22 09:38:43;;;;;;;11.70;8.67;;;;;;;;;;5075978;28;20177;-83
2023/07/22 09:41:09;;;;;;;11.70;8.43;;;;;;;;;;5075929;28;20182;-83
2023/07/22 09:43:38;;;;;;;10.93;7.87;;;;;;;;;;5075760;28;20207;-83
2023/07/22 09:46:22;;;;;;;11.73;8.17;;;;;;;;;;5075163;28;20179;-83
2023/07/22 09:48:48;;;;;;;10.23;7.53;;;;;;;;;;5075551;28;20182;-83
2023/07/22 09:51:16;;;;;;;9.70;7.40;;;;;;;;;;5075716;28;20182;-84
2023/07/22 09:53:59;;;;;;;9.70;7.03;;;;;;;;;;5075584;28;20202;-83
2023/07/22 09:56:25;;;;;;;10.07;7.17;;;;;;;;;;5075303;28;20179;-83
2023/07/22 09:58:52;;;;;;;10.43;6.70;;;;;;;;;;5075724;28;20182;-83
2023/07/22 10:01:24;;;;;;;8.20;6.33;;;;;;;;;;5075719;28;20186;-83
2023/07/22 10:03:54;;;;;;;10.03;7.10;;;;;;;;;;5075649;28;20183;-83
2023/07/22 10:06:21;;;;;;;10.57;7.07;;;;;;;;;;5075045;28;20220;-82
2023/07/22 10:08:48;;;;;;;8.77;6.23;;;;;;;;;;5075723;28;20207;-83
2023/07/22 10:11:15;;;;;;;10.53;6.80;;;;;;;;;;5074897;28;20187;-82
2023/07/22 10:13:41;;;;;;;11.83;6.80;;;;;;;;;;5080788;28;20194;-82
2023/07/22 10:16:07;;;;;;;11.57;6.73;;;;;;;;;;5084407;28;20197;-83
2023/07/22 10:18:34;;;;;;;7.93;5.70;;;;;;;;;;5067524;28;20268;-82
2023/07/22 10:21:03;;;;;;;8.47;6.03;;;;;;;;;;5075770;28;20194;-83
2023/07/22 10:23:30;;;;;;;9.63;5.93;;;;;;;;;;5079553;28;20242;-83
2023/07/22 10:25:58;;;;;;;9.17;6.53;;;;;;;;;;5079374;28;20186;-84
2023/07/22 10:28:24;;;;;;;7.23;6.03;;;;;;;;;;5079167;28;20186;-84
2023/07/22 10:30:52;;;;;;;9.70;6.23;;;;;;;;;;5082410;28;20177;-83
2023/07/22 10:33:18;;;;;;;7.57;6.33;;;;;;;;;;5079114;28;20198;-83
2023/07/22 10:36:02;;;;;;;12.00;6.83;;;;;;;;;;5079310;28;20228;-83
2023/07/22 10:38:28;;;;;;;7.87;6.80;;;;;;;;;;5079059;28;20210;-83
2023/07/22 10:40:55;;;;;;;7.63;5.93;;;;;;;;;;5078903;28;20193;-83
2023/07/22 10:43:25;;;;;;;7.73;6.27;;;;;;;;;;5078903;28;20213;-83
2023/07/22 10:45:52;;;;;;;7.70;5.60;;;;;;;;;;5079469;28;20179;-83
2023/07/22 10:48:18;;;;;;;9.13;5.73;;;;;;;;;;5079351;28;20182;-83
2023/07/22 10:50:54;;;;;;;8.47;6.80;;;;;;;;;;5079483;28;20182;-83
2023/07/22 10:53:28;;;;;;;7.20;5.60;;;;;;;;;;5079456;28;20185;-84
2023/07/22 10:56:11;;;;;;;7.83;6.10;;;;;;;;;;5079349;28;20190;-86
2023/07/22 10:58:43;;;;;;;9.33;5.50;;;;;;;;;;5094981;28;20182;-84
2023/07/22 11:01:24;;;;;;;8.67;6.07;;;;;;;;;;5098302;28;20205;-83
2023/07/22 11:04:10;;;;;;;7.67;5.40;;;;;;;;;;5097228;28;20224;-83
2023/07/22 11:06:37;;;;;;;8.03;5.83;;;;;;;;;;5096440;28;20253;-84
2023/07/22 11:09:03;;;;;;;9.03;6.37;;;;;;;;;;5077508;28;20217;-84
2023/07/22 11:11:37;;;;;;;8.40;5.67;;;;;;;;;;5080672;28;20197;-84
2023/07/22 11:14:13;;;;;;;7.57;5.43;;;;;;;;;;5093084;28;20204;-84
2023/07/22 11:16:42;;;;;;;9.25;6.18;;;;;;;;;;5077431;28;20492;-83
2023/07/22 11:22:13;;;;;;;6.53;4.80;;;;;;;;;;5109395;28;20208;-83
2023/07/22 11:24:39;;;;;;;9.10;5.27;;;;;;;;;;5098222;28;20188;-83
2023/07/22 11:27:06;;;;;;;6.93;5.20;;;;;;;;;;5080465;28;20483;-82
2023/07/22 11:29:32;;;;;;;6.53;5.13;;;;;;;;;;5079439;28;20182;-84
2023/07/22 11:31:58;;;;;;;6.80;4.87;;;;;;;;;;5079802;28;20259;-84
2023/07/22 11:34:25;;;;;;;6.87;5.40;;;;;;;;;;5094276;28;20190;-81
2023/07/22 11:36:52;;;;;;;8.83;4.90;;;;;;;;;;5109465;28;20182;-81
2023/07/22 11:39:20;;;;;;;6.77;5.07;;;;;;;;;;5111035;28;20201;-81
2023/07/22 11:41:47;;;;;;;7.70;5.73;;;;;;;;;;5077491;28;20214;-82
2023/07/22 11:44:14;;;;;;;8.63;5.90;;;;;;;;;;5078936;28;20179;-82
2023/07/22 11:47:09;;;;;;;10.50;5.87;;;;;;;;;;5077865;28;20175;-81
2023/07/22 11:49:39;;;;;;;6.80;5.70;;;;;;;;;;5077597;28;20190;-81
2023/07/22 11:52:07;;;;;;;7.13;6.00;;;;;;;;;;5080215;28;20192;-81
2023/07/22 11:54:33;;;;;;;9.37;5.50;;;;;;;;;;5079575;28;20238;-80
2023/07/22 11:57:20;;;;;;;6.87;5.43;;;;;;;;;;5097582;28;20178;-80
2023/07/22 11:59:47;;;;;;;7.90;5.30;;;;;;;;;;5093173;28;20179;-80
2023/07/22 12:02:21;;;;;;;6.53;4.87;;;;;;;;;;5093750;28;20210;-80
2023/07/22 12:05:06;;;;;;;8.17;5.10;;;;;;;;;;5094098;28;20182;-80
2023/07/22 12:07:36;;;;;;;8.20;4.57;;;;;;;;;;5060275;28;20228;-80
2023/07/22 12:10:05;;;;;;;8.90;5.00;;;;;;;;;;5093859;28;20171;-80
2023/07/22 12:12:45;;;;;;;9.13;4.53;;;;;;;;;;5093752;28;20178;-80
2023/07/22 12:15:15;;;;;;;6.07;4.40;;;;;;;;;;5093684;28;20174;-80
2023/07/22 12:17:45;;;;;;;7.33;4.20;;;;;;;;;;5093844;28;20205;-80
2023/07/22 12:20:11;;;;;;;8.83;3.97;;;;;;;;;;5093509;28;20181;-80
2023/07/22 12:22:37;;;;;;;4.70;3.63;;;;;;;;;;5059954;28;20210;-79
2023/07/22 12:25:03;;;;;;;5.53;4.17;;;;;;;;;;5060024;28;20175;-80
2023/07/22 12:27:29;;;;;;;6.57;3.93;;;;;;;;;;5060200;28;20201;-80
2023/07/22 12:29:55;;;;;;;4.87;3.83;;;;;;;;;;5093339;28;20181;-80
2023/07/22 12:32:21;;;;;;;6.43;3.63;;;;;;;;;;5093403;28;20174;-80
2023/07/22 12:34:50;;;;;;;5.23;3.50;;;;;;;;;;5093223;28;20271;-80
2023/07/22 12:37:16;;;;;;;6.90;3.20;;;;;;;;;;5093597;28;20174;-81
2023/07/22 12:39:42;;;;;;;5.30;3.23;;;;;;;;;;5093150;28;20167;-80
2023/07/22 12:42:08;;;;;;;5.73;3.27;;;;;;;;;;5059802;28;20213;-80
2023/07/22 12:44:36;;;;;;;4.70;3.40;;;;;;;;;;5058941;28;20174;-80
2023/07/22 12:47:02;;;;;;;3.10;2.80;;;;;;;;;;5092949;28;20177;-80
2023/07/22 12:49:28;;;;;;;6.00;3.00;;;;;;;;;;5093085;28;20198;-80
2023/07/22 12:51:55;;;;;;;5.53;3.17;;;;;;;;;;5059969;28;20276;-80
2023/07/22 12:54:21;;;;;;;5.40;2.53;;;;;;;;;;5093217;28;20227;-80
2023/07/22 12:56:47;;;;;;;7.00;3.10;;;;;;;;;;5059347;28;20179;-80
2023/07/22 12:59:13;;;;;;;8.13;3.57;;;;;;;;;;5092908;28;20170;-80
2023/07/22 13:01:41;;;;;;;5.23;3.63;;;;;;;;;;5059152;28;20217;-80
2023/07/22 13:04:07;;;;;;;6.50;3.87;;;;;;;;;;5060073;28;20183;-80
2023/07/22 13:06:48;;;;;;;6.87;3.63;;;;;;;;;;5103819;27;20541;-79
2023/07/22 13:09:16;;;;;;;6.97;4.00;;;;;;;;;;5053385;28;20211;-79
2023/07/22 13:11:42;;;;;;;7.13;3.67;;;;;;;;;;5053835;28;20175;-79
2023/07/22 13:14:08;;;;;;;4.77;3.77;;;;;;;;;;5053556;28;20254;-79
2023/07/22 13:16:34;;;;;;;4.70;3.53;;;;;;;;;;5053358;28;20289;-79
2023/07/22 13:19:02;;;;;;;5.77;3.67;;;;;;;;;;5053413;28;20257;-79
2023/07/22 13:21:29;;;;;;;8.17;3.70;;;;;;;;;;5069799;28;20247;-79
2023/07/22 13:23:55;;;;;;;8.13;3.87;;;;;;;;;;5069777;28;20179;-79
2023/07/22 13:26:21;;;;;;;5.83;4.00;;;;;;;;;;5053021;28;20211;-79
2023/07/22 13:28:47;;;;;;;8.07;3.87;;;;;;;;;;5069509;28;20199;-79
2023/07/22 13:31:13;;;;;;;5.17;4.00;;;;;;;;;;5069597;28;20247;-79
2023/07/22 13:33:39;;;;;;;6.53;4.03;;;;;;;;;;5069801;28;20186;-79
2023/07/22 13:36:06;;;;;;;5.80;3.60;;;;;;;;;;5069582;28;20186;-79
2023/07/22 13:38:32;;;;;;;5.17;3.73;;;;;;;;;;5052988;28;20186;-79
2023/07/22 13:40:58;;;;;;;5.83;3.83;;;;;;;;;;5069501;28;20251;-79
2023/07/22 13:43:25;;;;;;;5.87;3.83;;;;;;;;;;5069149;28;20183;-79
2023/07/22 13:45:51;;;;;;;4.57;3.70;;;;;;;;;;5052843;28;20333;-79
2023/07/22 13:48:17;;;;;;;6.23;3.77;;;;;;;;;;5069523;28;20258;-79
2023/07/22 13:50:43;;;;;;;5.57;3.80;;;;;;;;;;5053631;28;20199;-79
2023/07/22 13:53:09;;;;;;;8.63;4.03;;;;;;;;;;5069877;28;20190;-79
2023/07/22 13:55:35;;;;;;;8.07;3.60;;;;;;;;;;5054226;28;20187;-79
2023/07/22 13:58:01;;;;;;;8.57;4.20;;;;;;;;;;5053368;28;20194;-79
2023/07/22 14:00:27;;;;;;;9.10;4.43;;;;;;;;;;5052586;28;20190;-78
2023/07/22 14:02:53;;;;;;;6.07;4.20;;;;;;;;;;5052657;28;20175;-79
2023/07/22 14:05:19;;;;;;;5.30;4.13;;;;;;;;;;5053903;28;20235;-79
2023/07/22 14:07:45;;;;;;;5.90;4.00;;;;;;;;;;5052446;28;20175;-79
2023/07/22 14:10:12;;;;;;;7.30;4.27;;;;;;;;;;5052569;28;20179;-78
2023/07/22 14:12:38;;;;;;;8.40;4.17;;;;;;;;;;5068586;28;20237;-79
2023/07/22 14:15:04;;;;;;;7.87;4.60;;;;;;;;;;5068997;28;20266;-79
2023/07/22 14:17:32;;;;;;;9.10;4.20;;;;;;;;;;5059449;28;20188;-79
2023/07/22 14:19:58;;;;;;;7.27;4.43;;;;;;;;;;5055550;28;20233;-79
2023/07/22 14:22:24;;;;;;;6.23;4.43;;;;;;;;;;5039099;28;20180;-79
2023/07/22 14:24:50;;;;;;;8.17;3.90;;;;;;;;;;5038693;28;20310;-79
2023/07/22 14:27:16;;;;;;;6.73;4.33;;;;;;;;;;5038638;28;20196;-79
2023/07/22 14:29:42;;;;;;;6.40;4.03;;;;;;;;;;5038267;28;20191;-79
2023/07/22 14:32:09;;;;;;;10.17;4.53;;;;;;;;;;5038765;28;20191;-79
2023/07/22 14:34:35;;;;;;;6.67;4.60;;;;;;;;;;5055239;28;20183;-78